sensor_id;sensor_type;location;lat;lon;timestamp;pressure;altitude;pressure_sealevel;temperature;humidity
47761;BME280;33524;55.434;38.520;2023-12-20T00:00:27;98510.62;;;2.17;100.00
47761;BME280;33524;55.434;38.520;2023-12-20T00:02:56;98541.94;;;2.27;100.00
47761;BME280;33524;55.434;38.520;2023-12-20T00:05:24;98531.78;;;2.24;100.00
47761;BME280;33524;55.434;38.520;2023-12-20T00:07:52;98542.34;;;2.21;100.00
47761;BME280;33524;55.434;38.520;2023-12-20T00:10:20;98545.97;;;2.18;100.00
47761;BME280;33524;55.434;38.520;2023-12-20T00:12:49;98543.63;;;2.15;100.00
47761;BME280;33524;55.434;38.520;2023-12-20T00:15:17;98538.09;;;2.07;100.00
47761;BME280;33524;55.434;38.520;2023-12-20T00:17:45;98536.13;;;1.98;100.00
47761;BME280;33524;55.434;38.520;2023-12-20T00:20:13;98528.34;;;1.85;100.00
47761;BME280;33524;55.434;38.520;2023-12-20T00:22:41;98526.25;;;1.77;100.00
47761;BME280;33524;55.434;38.520;2023-12-20T00:25:10;98528.84;;;1.77;100.00
47761;BME280;33524;55.434;38.520;2023-12-20T00:27:38;98524.50;;;1.78;100.00
47761;BME280;33524;55.434;38.520;2023-12-20T00:30:09;98530.50;;;1.78;100.00
47761;BME280;33524;55.434;38.520;2023-12-20T00:32:38;98532.38;;;1.76;100.00
47761;BME280;33524;55.434;38.520;2023-12-20T00:35:06;98523.44;;;1.68;100.00
47761;BME280;33524;55.434;38.520;2023-12-20T00:37:37;98527.66;;;1.56;100.00
47761;BME280;33524;55.434;38.520;2023-12-20T00:40:06;98532.69;;;1.45;100.00
47761;BME280;33524;55.434;38.520;2023-12-20T00:42:35;98534.78;;;1.39;100.00
47761;BME280;33524;55.434;38.520;2023-12-20T00:45:06;98534.66;;;1.28;100.00
47761;BME280;33524;55.434;38.520;2023-12-20T00:47:34;98539.91;;;1.27;100.00
47761;BME280;33524;55.434;38.520;2023-12-20T00:50:03;98535.56;;;1.27;100.00
47761;BME280;33524;55.434;38.520;2023-12-20T00:52:34;98539.63;;;1.31;100.00
47761;BME280;33524;55.434;38.520;2023-12-20T00:55:03;98556.75;;;1.47;100.00
47761;BME280;33524;55.434;38.520;2023-12-20T00:57:32;98557.59;;;1.47;100.00
47761;BME280;33524;55.434;38.520;2023-12-20T01:00:00;98554.88;;;1.49;100.00
47761;BME280;33524;55.434;38.520;2023-12-20T01:02:31;98549.31;;;1.55;100.00
47761;BME280;33524;55.434;38.520;2023-12-20T01:04:59;98532.53;;;1.48;100.00
47761;BME280;33524;55.434;38.520;2023-12-20T01:07:31;98550.19;;;1.68;100.00
47761;BME280;33524;55.434;38.520;2023-12-20T01:09:59;98549.06;;;1.72;100.00
47761;BME280;33524;55.434;38.520;2023-12-20T01:12:29;98546.25;;;1.75;100.00
47761;BME280;33524;55.434;38.520;2023-12-20T01:14:57;98551.75;;;1.71;100.00
47761;BME280;33524;55.434;38.520;2023-12-20T01:17:26;98538.78;;;1.71;100.00
47761;BME280;33524;55.434;38.520;2023-12-20T01:19:54;98536.44;;;1.80;100.00
47761;BME280;33524;55.434;38.520;2023-12-20T01:22:22;98536.94;;;1.86;100.00
47761;BME280;33524;55.434;38.520;2023-12-20T01:24:50;98534.16;;;1.89;100.00
47761;BME280;33524;55.434;38.520;2023-12-20T01:27:19;98544.13;;;1.95;100.00
47761;BME280;33524;55.434;38.520;2023-12-20T01:29:47;98529.47;;;1.94;100.00
47761;BME280;33524;55.434;38.520;2023-12-20T01:32:15;98533.75;;;1.95;100.00
47761;BME280;33524;55.434;38.520;2023-12-20T01:34:43;98520.16;;;2.04;100.00
47761;BME280;33524;55.434;38.520;2023-12-20T01:37:12;98511.22;;;1.95;100.00
47761;BME280;33524;55.434;38.520;2023-12-20T01:39:41;98511.03;;;2.11;100.00
47761;BME280;33524;55.434;38.520;2023-12-20T01:42:09;98512.06;;;2.09;100.00
47761;BME280;33524;55.434;38.520;2023-12-20T01:44:37;98514.56;;;2.10;100.00
47761;BME280;33524;55.434;38.520;2023-12-20T01:47:05;98498.81;;;2.13;100.00
47761;BME280;33524;55.434;38.520;2023-12-20T01:49:34;98509.38;;;2.10;100.00
47761;BME280;33524;55.434;38.520;2023-12-20T01:52:03;98484.06;;;2.01;100.00
47761;BME280;33524;55.434;38.520;2023-12-20T01:54:34;98511.53;;;2.16;100.00
47761;BME280;33524;55.434;38.520;2023-12-20T01:57:05;98506.28;;;2.05;100.00
47761;BME280;33524;55.434;38.520;2023-12-20T01:59:34;98511.44;;;2.05;100.00
47761;BME280;33524;55.434;38.520;2023-12-20T02:02:03;98504.19;;;2.10;100.00
47761;BME280;33524;55.434;38.520;2023-12-20T02:04:32;98506.56;;;2.13;100.00
47761;BME280;33524;55.434;38.520;2023-12-20T02:07:01;98499.22;;;2.07;100.00
47761;BME280;33524;55.434;38.520;2023-12-20T02:09:30;98491.72;;;2.02;100.00
47761;BME280;33524;55.434;38.520;2023-12-20T02:11:58;98486.34;;;2.06;100.00
47761;BME280;33524;55.434;38.520;2023-12-20T02:14:27;98490.28;;;1.98;100.00
47761;BME280;33524;55.434;38.520;2023-12-20T02:16:56;98497.13;;;1.99;100.00
47761;BME280;33524;55.434;38.520;2023-12-20T02:19:24;98492.87;;;1.98;100.00
47761;BME280;33524;55.434;38.520;2023-12-20T02:22:08;98487.91;;;1.95;100.00
47761;BME280;33524;55.434;38.520;2023-12-20T02:24:36;98487.09;;;1.95;100.00
47761;BME280;33524;55.434;38.520;2023-12-20T02:27:06;98485.63;;;1.91;100.00
47761;BME280;33524;55.434;38.520;2023-12-20T02:29:35;98491.44;;;1.94;100.00
47761;BME280;33524;55.434;38.520;2023-12-20T02:32:03;98488.22;;;2.04;100.00
47761;BME280;33524;55.434;38.520;2023-12-20T02:34:31;98489.97;;;2.03;100.00
47761;BME280;33524;55.434;38.520;2023-12-20T02:37:03;98480.03;;;2.10;100.00
47761;BME280;33524;55.434;38.520;2023-12-20T02:39:31;98485.94;;;2.12;100.00
47761;BME280;33524;55.434;38.520;2023-12-20T02:41:59;98486.53;;;2.02;100.00
47761;BME280;33524;55.434;38.520;2023-12-20T02:44:27;98491.63;;;2.04;100.00
47761;BME280;33524;55.434;38.520;2023-12-20T02:46:55;98487.78;;;2.10;100.00
47761;BME280;33524;55.434;38.520;2023-12-20T02:49:23;98483.66;;;2.07;100.00
47761;BME280;33524;55.434;38.520;2023-12-20T02:51:51;98483.84;;;2.04;100.00
47761;BME280;33524;55.434;38.520;2023-12-20T02:54:20;98482.81;;;2.07;100.00
47761;BME280;33524;55.434;38.520;2023-12-20T02:56:48;98490.88;;;2.15;100.00
47761;BME280;33524;55.434;38.520;2023-12-20T02:59:16;98491.13;;;2.12;100.00
47761;BME280;33524;55.434;38.520;2023-12-20T03:01:47;98483.97;;;2.15;100.00
47761;BME280;33524;55.434;38.520;2023-12-20T03:04:15;98477.81;;;2.16;100.00
47761;BME280;33524;55.434;38.520;2023-12-20T03:06:43;98471.41;;;2.09;100.00
47761;BME280;33524;55.434;38.520;2023-12-20T03:09:12;98473.28;;;2.07;100.00
47761;BME280;33524;55.434;38.520;2023-12-20T03:11:40;98446.22;;;1.86;100.00
47761;BME280;33524;55.434;38.520;2023-12-20T03:14:08;98485.31;;;2.08;100.00
47761;BME280;33524;55.434;38.520;2023-12-20T03:16:36;98477.84;;;1.91;100.00
47761;BME280;33524;55.434;38.520;2023-12-20T03:19:04;98484.50;;;1.82;100.00
47761;BME280;33524;55.434;38.520;2023-12-20T03:21:32;98491.31;;;1.96;100.00
47761;BME280;33524;55.434;38.520;2023-12-20T03:24:00;98487.09;;;1.95;100.00
47761;BME280;33524;55.434;38.520;2023-12-20T03:26:28;98485.81;;;1.88;100.00
47761;BME280;33524;55.434;38.520;2023-12-20T03:28:56;98492.53;;;1.77;100.00
47761;BME280;33524;55.434;38.520;2023-12-20T03:31:25;98488.41;;;1.75;100.00
47761;BME280;33524;55.434;38.520;2023-12-20T03:33:53;98502.62;;;1.82;100.00
47761;BME280;33524;55.434;38.520;2023-12-20T03:36:21;98493.38;;;1.65;100.00
47761;BME280;33524;55.434;38.520;2023-12-20T03:38:49;98513.28;;;1.77;100.00
47761;BME280;33524;55.434;38.520;2023-12-20T03:41:17;98506.47;;;1.76;100.00
47761;BME280;33524;55.434;38.520;2023-12-20T03:43:45;98502.31;;;1.87;100.00
47761;BME280;33524;55.434;38.520;2023-12-20T03:46:13;98482.19;;;1.77;100.00
47761;BME280;33524;55.434;38.520;2023-12-20T03:48:41;98423.37;;;1.39;100.00
47761;BME280;33524;55.434;38.520;2023-12-20T03:51:09;98501.38;;;1.88;100.00
47761;BME280;33524;55.434;38.520;2023-12-20T03:53:38;98495.47;;;1.86;100.00
47761;BME280;33524;55.434;38.520;2023-12-20T03:56:08;98501.38;;;1.88;100.00
47761;BME280;33524;55.434;38.520;2023-12-20T03:58:36;98511.22;;;1.95;100.00
47761;BME280;33524;55.434;38.520;2023-12-20T04:01:09;98503.47;;;1.95;100.00
47761;BME280;33524;55.434;38.520;2023-12-20T04:03:40;98489.56;;;1.84;100.00
47761;BME280;33524;55.434;38.520;2023-12-20T04:06:08;98512.78;;;1.98;100.00
47761;BME280;33524;55.434;38.520;2023-12-20T04:08:36;98515.59;;;1.95;100.00
47761;BME280;33524;55.434;38.520;2023-12-20T04:11:04;98506.78;;;1.97;100.00
47761;BME280;33524;55.434;38.520;2023-12-20T04:13:32;98503.69;;;2.05;100.00
47761;BME280;33524;55.434;38.520;2023-12-20T04:16:00;98501.69;;;2.09;100.00
47761;BME280;33524;55.434;38.520;2023-12-20T04:18:29;98504.09;;;2.12;100.00
47761;BME280;33524;55.434;38.520;2023-12-20T04:20:57;98507.09;;;2.06;100.00
47761;BME280;33524;55.434;38.520;2023-12-20T04:23:25;98507.72;;;2.09;100.00
47761;BME280;33524;55.434;38.520;2023-12-20T04:25:54;98510.81;;;2.01;100.00
47761;BME280;33524;55.434;38.520;2023-12-20T04:28:22;98511.66;;;2.02;100.00
47761;BME280;33524;55.434;38.520;2023-12-20T04:30:50;98506.13;;;2.07;100.00
47761;BME280;33524;55.434;38.520;2023-12-20T04:33:19;98507.09;;;2.06;100.00
47761;BME280;33524;55.434;38.520;2023-12-20T04:35:47;98502.72;;;2.06;100.00
47761;BME280;33524;55.434;38.520;2023-12-20T04:38:15;98502.00;;;2.04;100.00
47761;BME280;33524;55.434;38.520;2023-12-20T04:40:43;98517.78;;;2.01;100.00
47761;BME280;33524;55.434;38.520;2023-12-20T04:43:11;98509.38;;;1.97;100.00
47761;BME280;33524;55.434;38.520;2023-12-20T04:45:39;98521.38;;;1.98;100.00
47761;BME280;33524;55.434;38.520;2023-12-20T04:48:08;98509.38;;;1.85;100.00
47761;BME280;33524;55.434;38.520;2023-12-20T04:50:36;98515.59;;;1.95;100.00
47761;BME280;33524;55.434;38.520;2023-12-20T04:53:04;98513.59;;;1.98;100.00
47761;BME280;33524;55.434;38.520;2023-12-20T04:55:32;98520.88;;;2.06;100.00
47761;BME280;33524;55.434;38.520;2023-12-20T04:58:01;98523.69;;;2.03;100.00
47761;BME280;33524;55.434;38.520;2023-12-20T05:00:29;98523.28;;;2.09;100.00
47761;BME280;33524;55.434;38.520;2023-12-20T05:02:58;98514.03;;;2.05;100.00
47761;BME280;33524;55.434;38.520;2023-12-20T05:05:26;98517.16;;;2.10;100.00
47761;BME280;33524;55.434;38.520;2023-12-20T05:07:54;98523.28;;;2.09;100.00
47761;BME280;33524;55.434;38.520;2023-12-20T05:10:22;98515.28;;;1.99;100.00
47761;BME280;33524;55.434;38.520;2023-12-20T05:12:50;98525.75;;;1.98;100.00
47761;BME280;33524;55.434;38.520;2023-12-20T05:15:21;98522.97;;;1.88;100.00
47761;BME280;33524;55.434;38.520;2023-12-20T05:17:50;98516.84;;;1.89;100.00
47761;BME280;33524;55.434;38.520;2023-12-20T05:20:18;98527.84;;;1.93;100.00
47761;BME280;33524;55.434;38.520;2023-12-20T05:22:46;98520.78;;;1.95;100.00
47761;BME280;33524;55.434;38.520;2023-12-20T05:25:15;98531.88;;;1.97;100.00
47761;BME280;33524;55.434;38.520;2023-12-20T05:27:44;98531.47;;;2.03;100.00
47761;BME280;33524;55.434;38.520;2023-12-20T05:30:13;98529.28;;;2.10;100.00
47761;BME280;33524;55.434;38.520;2023-12-20T05:32:42;98537.37;;;2.05;100.00
47761;BME280;33524;55.434;38.520;2023-12-20T05:35:10;98538.09;;;2.07;100.00
47761;BME280;33524;55.434;38.520;2023-12-20T05:37:38;98553.13;;;2.02;100.00
47761;BME280;33524;55.434;38.520;2023-12-20T05:40:07;98540.97;;;1.90;100.00
47761;BME280;33524;55.434;38.520;2023-12-20T05:42:37;98554.47;;;1.82;100.00
47761;BME280;33524;55.434;38.520;2023-12-20T05:45:06;98537.34;;;1.79;100.00
47761;BME280;33524;55.434;38.520;2023-12-20T05:47:34;98537.66;;;1.88;100.00
47761;BME280;33524;55.434;38.520;2023-12-20T05:50:03;98539.25;;;1.90;100.00
47761;BME280;33524;55.434;38.520;2023-12-20T05:52:31;98538.63;;;1.99;100.00
47761;BME280;33524;55.434;38.520;2023-12-20T05:55:00;98543.81;;;1.99;100.00
47761;BME280;33524;55.434;38.520;2023-12-20T05:57:34;98554.81;;;2.03;100.00
47761;BME280;33524;55.434;38.520;2023-12-20T06:00:03;98539.03;;;2.06;100.00
47761;BME280;33524;55.434;38.520;2023-12-20T06:02:39;98542.16;;;2.11;100.00
47761;BME280;33524;55.434;38.520;2023-12-20T06:05:08;98538.09;;;2.20;100.00
47761;BME280;33524;55.434;38.520;2023-12-20T06:07:36;98540.69;;;2.20;100.00
47761;BME280;33524;55.434;38.520;2023-12-20T06:10:05;98537.37;;;2.05;100.00
47761;BME280;33524;55.434;38.520;2023-12-20T06:12:35;98531.34;;;1.92;100.00
47761;BME280;33524;55.434;38.520;2023-12-20T06:15:03;98537.97;;;1.70;100.00
47761;BME280;33524;55.434;38.520;2023-12-20T06:17:32;98534.41;;;1.58;100.00
47761;BME280;33524;55.434;38.520;2023-12-20T06:20:00;98536.97;;;1.46;100.00
47761;BME280;33524;55.434;38.520;2023-12-20T06:22:29;98540.03;;;1.38;100.00
47761;BME280;33524;55.434;38.520;2023-12-20T06:24:57;98546.03;;;1.38;100.00
47761;BME280;33524;55.434;38.520;2023-12-20T06:27:26;98524.28;;;1.28;100.00
47761;BME280;33524;55.434;38.520;2023-12-20T06:29:54;98550.34;;;1.52;100.00
47761;BME280;33524;55.434;38.520;2023-12-20T06:32:22;98543.94;;;1.58;100.00
47761;BME280;33524;55.434;38.520;2023-12-20T06:34:51;98551.22;;;1.66;100.00
47761;BME280;33524;55.434;38.520;2023-12-20T06:37:19;98551.56;;;1.74;100.00
47761;BME280;33524;55.434;38.520;2023-12-20T06:39:47;98557.06;;;1.82;100.00
47761;BME280;33524;55.434;38.520;2023-12-20T06:42:16;98555.28;;;1.83;100.00
47761;BME280;33524;55.434;38.520;2023-12-20T06:44:44;98563.50;;;1.89;100.00
47761;BME280;33524;55.434;38.520;2023-12-20T06:47:12;98553.03;;;2.04;100.00
47761;BME280;33524;55.434;38.520;2023-12-20T06:49:42;98557.41;;;2.03;100.00
47761;BME280;33524;55.434;38.520;2023-12-20T06:52:10;98548.16;;;1.99;100.00
47761;BME280;33524;55.434;38.520;2023-12-20T06:54:38;98544.72;;;1.98;100.00
47761;BME280;33524;55.434;38.520;2023-12-20T06:57:09;98535.81;;;1.90;100.00
47761;BME280;33524;55.434;38.520;2023-12-20T06:59:39;98545.75;;;1.96;100.00
47761;BME280;33524;55.434;38.520;2023-12-20T07:02:13;98550.53;;;2.02;100.00
47761;BME280;33524;55.434;38.520;2023-12-20T07:04:42;98545.25;;;2.04;100.00
47761;BME280;33524;55.434;38.520;2023-12-20T07:07:11;98553.84;;;2.04;100.00
47761;BME280;33524;55.434;38.520;2023-12-20T07:09:39;98551.56;;;1.99;100.00
47761;BME280;33524;55.434;38.520;2023-12-20T07:12:10;98562.59;;;2.03;100.00
47761;BME280;33524;55.434;38.520;2023-12-20T07:14:39;98574.28;;;2.09;100.00
47761;BME280;33524;55.434;38.520;2023-12-20T07:17:07;98576.06;;;2.08;100.00
47761;BME280;33524;55.434;38.520;2023-12-20T07:19:39;98568.69;;;2.15;100.00
47761;BME280;33524;55.434;38.520;2023-12-20T07:22:08;98576.19;;;2.19;100.00
47761;BME280;33524;55.434;38.520;2023-12-20T07:24:36;98567.37;;;2.22;100.00
47761;BME280;33524;55.434;38.520;2023-12-20T07:27:04;98573.06;;;2.27;100.00
47761;BME280;33524;55.434;38.520;2023-12-20T07:29:32;98577.97;;;2.32;100.00
47761;BME280;33524;55.434;38.520;2023-12-20T07:32:01;98572.78;;;2.32;100.00
47761;BME280;33524;55.434;38.520;2023-12-20T07:34:30;98577.97;;;2.32;100.00
47761;BME280;33524;55.434;38.520;2023-12-20T07:37:16;98578.88;;;2.43;100.00
47761;BME280;33524;55.434;38.520;2023-12-20T07:39:44;98587.91;;;2.51;100.00
47761;BME280;33524;55.434;38.520;2023-12-20T07:42:12;98591.97;;;2.55;100.00
47761;BME280;33524;55.434;38.520;2023-12-20T07:44:40;98588.53;;;2.54;100.00
47761;BME280;33524;55.434;38.520;2023-12-20T07:47:26;98593.59;;;2.69;100.00
47761;BME280;33524;55.434;38.520;2023-12-20T07:49:54;98591.53;;;2.74;100.00
47761;BME280;33524;55.434;38.520;2023-12-20T07:52:23;98591.91;;;2.80;100.00
47761;BME280;33524;55.434;38.520;2023-12-20T07:54:52;98585.25;;;2.89;100.00
47761;BME280;33524;55.434;38.520;2023-12-20T07:57:20;98578.09;;;2.93;100.00
47761;BME280;33524;55.434;38.520;2023-12-20T07:59:48;98591.03;;;3.06;100.00
47761;BME280;33524;55.434;38.520;2023-12-20T08:02:16;98586.84;;;3.16;100.00
47761;BME280;33524;55.434;38.520;2023-12-20T08:04:54;98591.59;;;3.22;100.00
47761;BME280;33524;55.434;38.520;2023-12-20T08:07:22;98598.87;;;3.30;100.00
47761;BME280;33524;55.434;38.520;2023-12-20T08:09:51;98599.50;;;3.33;100.00
47761;BME280;33524;55.434;38.520;2023-12-20T08:12:19;98590.69;;;3.23;100.00
47761;BME280;33524;55.434;38.520;2023-12-20T08:14:47;98593.19;;;3.25;100.00
47761;BME280;33524;55.434;38.520;2023-12-20T08:17:16;98597.19;;;3.29;100.00
47761;BME280;33524;55.434;38.520;2023-12-20T08:19:46;98597.19;;;3.29;99.85
47761;BME280;33524;55.434;38.520;2023-12-20T08:22:14;98602.00;;;3.22;99.68
47761;BME280;33524;55.434;38.520;2023-12-20T08:24:43;98595.06;;;3.22;99.85
47761;BME280;33524;55.434;38.520;2023-12-20T08:27:11;98595.06;;;3.10;99.93
47761;BME280;33524;55.434;38.520;2023-12-20T08:29:39;98569.97;;;2.97;99.74
47761;BME280;33524;55.434;38.520;2023-12-20T08:32:08;98594.34;;;3.20;99.69
47761;BME280;33524;55.434;38.520;2023-12-20T08:34:36;98594.53;;;3.17;99.62
47761;BME280;33524;55.434;38.520;2023-12-20T08:37:06;98580.00;;;3.15;99.49
47761;BME280;33524;55.434;38.520;2023-12-20T08:39:34;98591.22;;;3.15;99.46
47761;BME280;33524;55.434;38.520;2023-12-20T08:42:02;98596.41;;;3.15;99.93
47761;BME280;33524;55.434;38.520;2023-12-20T08:44:31;98593.34;;;2.97;100.00
47761;BME280;33524;55.434;38.520;2023-12-20T08:46:59;98594.59;;;3.05;100.00
47761;BME280;33524;55.434;38.520;2023-12-20T08:49:27;98593.50;;;3.20;99.70
47761;BME280;33524;55.434;38.520;2023-12-20T08:51:56;98581.44;;;3.19;99.39
47761;BME280;33524;55.434;38.520;2023-12-20T08:54:25;98576.31;;;2.93;99.49
47761;BME280;33524;55.434;38.520;2023-12-20T08:56:53;98596.03;;;3.09;99.79
47761;BME280;33524;55.434;38.520;2023-12-20T08:59:21;98603.38;;;3.15;99.46
47761;BME280;33524;55.434;38.520;2023-12-20T09:01:50;98605.56;;;3.21;99.14
47761;BME280;33524;55.434;38.520;2023-12-20T09:04:23;98598.47;;;3.23;98.79
47761;BME280;33524;55.434;38.520;2023-12-20T09:06:52;98597.59;;;3.35;98.30
47761;BME280;33524;55.434;38.520;2023-12-20T09:09:23;98588.12;;;3.34;98.00
47761;BME280;33524;55.434;38.520;2023-12-20T09:11:51;98588.25;;;3.33;97.92
47761;BME280;33524;55.434;38.520;2023-12-20T09:14:20;98597.38;;;3.38;97.69
47761;BME280;33524;55.434;38.520;2023-12-20T09:16:48;98583.19;;;3.31;97.66
47761;BME280;33524;55.434;38.520;2023-12-20T09:19:19;98587.84;;;3.26;97.65
47761;BME280;33524;55.434;38.520;2023-12-20T09:21:47;98590.34;;;3.28;97.76
47761;BME280;33524;55.434;38.520;2023-12-20T09:24:15;98586.38;;;3.35;97.50
47761;BME280;33524;55.434;38.520;2023-12-20T09:26:44;98586.22;;;3.25;97.72
47761;BME280;33524;55.434;38.520;2023-12-20T09:29:12;98579.91;;;3.16;97.83
47761;BME280;33524;55.434;38.520;2023-12-20T09:31:43;98594.72;;;3.27;97.95
47761;BME280;33524;55.434;38.520;2023-12-20T09:34:15;98590.78;;;3.21;98.27
47761;BME280;33524;55.434;38.520;2023-12-20T09:36:44;98595.38;;;3.18;98.27
47761;BME280;33524;55.434;38.520;2023-12-20T09:39:16;98596.09;;;3.20;98.26
47761;BME280;33524;55.434;38.520;2023-12-20T09:42:01;98590.41;;;3.15;98.53
47761;BME280;33524;55.434;38.520;2023-12-20T09:44:31;98589.06;;;3.09;98.64
47761;BME280;33524;55.434;38.520;2023-12-20T09:47:05;98586.13;;;3.14;98.82
47761;BME280;33524;55.434;38.520;2023-12-20T09:49:33;98587.69;;;3.16;98.83
47761;BME280;33524;55.434;38.520;2023-12-20T09:52:07;98598.09;;;3.16;98.94
47761;BME280;33524;55.434;38.520;2023-12-20T09:54:36;98597.25;;;3.16;99.03
47761;BME280;33524;55.434;38.520;2023-12-20T09:57:05;98599.75;;;3.17;99.28
47761;BME280;33524;55.434;38.520;2023-12-20T09:59:33;98583.44;;;3.15;98.62
47761;BME280;33524;55.434;38.520;2023-12-20T10:02:01;98600.97;;;3.25;98.97
47761;BME280;33524;55.434;38.520;2023-12-20T10:04:32;98601.81;;;3.25;98.87
47761;BME280;33524;55.434;38.520;2023-12-20T10:07:07;98600.03;;;3.26;98.87
47761;BME280;33524;55.434;38.520;2023-12-20T10:09:37;98605.97;;;3.15;98.91
47761;BME280;33524;55.434;38.520;2023-12-20T10:12:06;98604.63;;;3.09;99.92
47761;BME280;33524;55.434;38.520;2023-12-20T10:14:34;98602.66;;;3.13;100.00
47761;BME280;33524;55.434;38.520;2023-12-20T10:17:03;98601.00;;;3.12;99.79
47761;BME280;33524;55.434;38.520;2023-12-20T10:19:32;98606.81;;;3.15;99.57
47761;BME280;33524;55.434;38.520;2023-12-20T10:22:03;98604.31;;;3.14;99.36
47761;BME280;33524;55.434;38.520;2023-12-20T10:24:32;98601.06;;;3.23;99.21
47761;BME280;33524;55.434;38.520;2023-12-20T10:27:08;98603.50;;;3.13;99.60
47761;BME280;33524;55.434;38.520;2023-12-20T10:29:38;98596.09;;;3.20;98.94
47761;BME280;33524;55.434;38.520;2023-12-20T10:32:23;98601.19;;;3.21;98.86
47761;BME280;33524;55.434;38.520;2023-12-20T10:34:55;98593.06;;;3.26;98.52
47761;BME280;33524;55.434;38.520;2023-12-20T10:37:24;98586.41;;;3.22;98.50
47761;BME280;33524;55.434;38.520;2023-12-20T10:39:55;98595.94;;;3.34;98.38
47761;BME280;33524;55.434;38.520;2023-12-20T10:42:29;98592.41;;;3.35;98.18
47761;BME280;33524;55.434;38.520;2023-12-20T10:44:59;98594.50;;;3.30;98.25
47761;BME280;33524;55.434;38.520;2023-12-20T10:47:32;98598.31;;;3.37;98.09
47761;BME280;33524;55.434;38.520;2023-12-20T10:50:05;98602.09;;;3.33;98.04
47761;BME280;33524;55.434;38.520;2023-12-20T10:52:34;98601.81;;;3.25;98.35
47761;BME280;33524;55.434;38.520;2023-12-20T10:55:04;98599.75;;;3.17;98.61
47761;BME280;33524;55.434;38.520;2023-12-20T10:57:36;98598.91;;;3.17;98.56
47761;BME280;33524;55.434;38.520;2023-12-20T11:00:06;98589.34;;;3.17;98.49
47761;BME280;33524;55.434;38.520;2023-12-20T11:02:39;98584.78;;;3.21;98.28
47761;BME280;33524;55.434;38.520;2023-12-20T11:05:58;98589.72;;;3.24;98.56
47761;BME280;33524;55.434;38.520;2023-12-20T11:08:32;98578.56;;;3.11;98.84
47761;BME280;33524;55.434;38.520;2023-12-20T11:14:19;98591.56;;;3.35;98.11
47761;BME280;33524;55.434;38.520;2023-12-20T11:16:51;98588.81;;;3.25;98.33
47761;BME280;33524;55.434;38.520;2023-12-20T11:19:36;98595.59;;;3.15;98.67
47761;BME280;33524;55.434;38.520;2023-12-20T11:22:05;98586.22;;;3.25;98.36
47761;BME280;33524;55.434;38.520;2023-12-20T11:24:34;98593.34;;;3.10;98.98
47761;BME280;33524;55.434;38.520;2023-12-20T11:27:08;98598.63;;;3.09;99.56
47761;BME280;33524;55.434;38.520;2023-12-20T11:29:36;98602.88;;;3.10;99.39
47761;BME280;33524;55.434;38.520;2023-12-20T11:35:01;98599.69;;;3.06;99.13
47761;BME280;33524;55.434;38.520;2023-12-20T11:37:45;98600.50;;;3.07;99.07
47761;BME280;33524;55.434;38.520;2023-12-20T11:40:18;98599.59;;;2.95;99.33
47761;BME280;33524;55.434;38.520;2023-12-20T11:42:50;98602.28;;;2.93;99.67
47761;BME280;33524;55.434;38.520;2023-12-20T11:45:21;98605.00;;;2.79;100.00
47761;BME280;33524;55.434;38.520;2023-12-20T11:47:51;98598.56;;;2.85;100.00
47761;BME280;33524;55.434;38.520;2023-12-20T11:50:22;98598.37;;;2.88;100.00
47761;BME280;33524;55.434;38.520;2023-12-20T11:52:52;98599.81;;;2.79;100.00
47761;BME280;33524;55.434;38.520;2023-12-20T11:55:22;98593.47;;;2.83;100.00
47761;BME280;33524;55.434;38.520;2023-12-20T11:57:55;98595.47;;;2.79;100.00
47761;BME280;33524;55.434;38.520;2023-12-20T12:00:27;98597.22;;;2.79;100.00
47761;BME280;33524;55.434;38.520;2023-12-20T12:02:59;98598.78;;;2.69;100.00
47761;BME280;33524;55.434;38.520;2023-12-20T12:05:27;98598.59;;;2.72;100.00
47761;BME280;33524;55.434;38.520;2023-12-20T12:07:56;98603.78;;;2.72;100.00
47761;BME280;33524;55.434;38.520;2023-12-20T12:10:24;98610.12;;;2.68;100.00
47761;BME280;33524;55.434;38.520;2023-12-20T12:12:53;98614.56;;;2.66;100.00
47761;BME280;33524;55.434;38.520;2023-12-20T12:15:22;98618.94;;;2.65;100.00
47761;BME280;33524;55.434;38.520;2023-12-20T12:17:53;98616.66;;;2.60;100.00
47761;BME280;33524;55.434;38.520;2023-12-20T12:20:23;98614.66;;;2.64;100.00
47761;BME280;33524;55.434;38.520;2023-12-20T12:23:03;98609.91;;;2.58;100.00
47761;BME280;33524;55.434;38.520;2023-12-20T12:25:34;98617.50;;;2.61;100.00
47761;BME280;33524;55.434;38.520;2023-12-20T12:28:08;98621.87;;;2.60;100.00
47761;BME280;33524;55.434;38.520;2023-12-20T12:30:36;98615.50;;;2.52;100.00
47761;BME280;33524;55.434;38.520;2023-12-20T12:33:12;98622.28;;;2.54;100.00
47761;BME280;33524;55.434;38.520;2023-12-20T12:35:41;98618.09;;;2.52;100.00
47761;BME280;33524;55.434;38.520;2023-12-20T12:38:11;98618.97;;;2.52;100.00
47761;BME280;33524;55.434;38.520;2023-12-20T12:40:39;98615.41;;;2.53;100.00
47761;BME280;33524;55.434;38.520;2023-12-20T12:43:11;98615.81;;;2.47;100.00
47761;BME280;33524;55.434;38.520;2023-12-20T12:45:40;98614.69;;;2.51;100.00
47761;BME280;33524;55.434;38.520;2023-12-20T12:48:08;98630.34;;;2.50;100.00
47761;BME280;33524;55.434;38.520;2023-12-20T12:50:36;98629.94;;;2.43;100.00
47761;BME280;33524;55.434;38.520;2023-12-20T12:53:04;98627.56;;;2.40;100.00
47761;BME280;33524;55.434;38.520;2023-12-20T12:55:34;98624.25;;;2.38;100.00
47761;BME280;33524;55.434;38.520;2023-12-20T12:58:03;98636.59;;;2.34;100.00
47761;BME280;33524;55.434;38.520;2023-12-20T13:00:33;98634.91;;;2.33;100.00
47761;BME280;33524;55.434;38.520;2023-12-20T13:03:01;98633.34;;;2.31;100.00
47761;BME280;33524;55.434;38.520;2023-12-20T13:05:31;98640.41;;;2.29;100.00
47761;BME280;33524;55.434;38.520;2023-12-20T13:08:06;98645.09;;;2.24;100.00
47761;BME280;33524;55.434;38.520;2023-12-20T13:10:34;98645.19;;;2.22;100.00